Time;durP1;ratioP1;P1;durP2;ratioP2;P2;SDS_P1;SDS_P2;PMS_P1;PMS_P2;Temp;Humidity;BMP_temperature;BMP_pressure;BME280_temperature;BME280_humidity;BME280_pressure;Samples;Min_cycle;Max_cycle;Signal;HPM_P1;HPM_P2
2022/07/08 00:00:46;;;;;;;11.50;1.73;;;;;;;11.36;100.00;97696.00;5036281;28;20033;-73
2022/07/08 00:03:12;;;;;;;13.90;1.70;;;;;;;11.42;100.00;97695.91;5036548;28;20112;-73
2022/07/08 00:05:38;;;;;;;6.72;1.38;;;;;;;11.44;100.00;97679.63;5037497;28;20472;-73
2022/07/08 00:08:04;;;;;;;10.90;2.20;;;;;;;11.28;100.00;97682.88;5053327;28;20105;-73
2022/07/08 00:10:29;;;;;;;10.15;1.33;;;;;;;11.19;100.00;97685.03;5037453;28;20435;-73
2022/07/08 00:12:55;;;;;;;6.28;1.45;;;;;;;11.19;100.00;97685.03;5038265;28;20381;-72
2022/07/08 00:15:21;;;;;;;6.65;1.30;;;;;;;11.11;100.00;97688.03;5036872;28;20158;-72
2022/07/08 00:17:47;;;;;;;7.15;1.52;;;;;;;11.05;100.00;97686.22;5036291;28;20238;-72
2022/07/08 00:20:12;;;;;;;9.55;1.80;;;;;;;10.96;100.00;97693.72;5034174;28;20228;-73
2022/07/08 00:22:38;;;;;;;6.28;1.20;;;;;;;10.88;100.00;97689.47;5037058;28;20071;-72
2022/07/08 00:25:04;;;;;;;10.60;1.40;;;;;;;10.81;100.00;97691.38;5035903;28;20037;-73
2022/07/08 00:27:29;;;;;;;5.40;1.40;;;;;;;10.76;100.00;97691.25;5035273;28;20036;-72
2022/07/08 00:29:55;;;;;;;6.55;1.42;;;;;;;10.74;100.00;97687.13;5036959;28;20060;-72
2022/07/08 00:32:21;;;;;;;6.03;1.38;;;;;;;10.69;100.00;97687.81;5037284;28;20037;-73
2022/07/08 00:34:47;;;;;;;4.60;1.10;;;;;;;10.65;100.00;97689.25;5036508;28;20102;-72
2022/07/08 00:37:12;;;;;;;8.50;1.60;;;;;;;10.52;100.00;97682.19;5037474;28;20028;-73
2022/07/08 00:39:38;;;;;;;5.38;1.15;;;;;;;10.48;100.00;97691.66;5035940;28;20344;-72
2022/07/08 00:42:05;;;;;;;6.10;1.00;;;;;;;10.47;100.00;97681.19;5034741;28;20036;-72
2022/07/08 00:44:30;;;;;;;8.95;1.27;;;;;;;10.45;100.00;97693.97;5035446;28;20127;-73
2022/07/08 00:46:56;;;;;;;10.27;1.45;;;;;;;10.39;100.00;97694.84;5035494;28;20104;-72
2022/07/08 00:49:22;;;;;;;6.50;1.20;;;;;;;10.40;100.00;97688.44;5036111;28;20302;-72
2022/07/08 00:51:48;;;;;;;5.35;0.90;;;;;;;10.31;100.00;97686.03;5054901;28;20492;-72
2022/07/08 00:54:18;;;;;;;11.55;1.50;;;;;;;10.26;100.00;97695.75;5033337;28;20471;-72
2022/07/08 00:56:43;;;;;;;9.93;1.40;;;;;;;10.19;100.00;97690.41;5037440;28;20025;-73
2022/07/08 00:59:09;;;;;;;7.53;1.45;;;;;;;10.23;100.00;97691.66;5034945;28;20060;-73
2022/07/08 01:01:35;;;;;;;5.50;1.33;;;;;;;10.21;100.00;97704.41;5035405;28;20037;-73
2022/07/08 01:04:02;;;;;;;6.65;1.13;;;;;;;10.16;100.00;97700.72;5035422;28;20116;-73
2022/07/08 01:06:28;;;;;;;9.50;1.45;;;;;;;10.15;100.00;97696.41;5035148;28;20029;-73
2022/07/08 01:08:54;;;;;;;7.70;1.40;;;;;;;10.11;100.00;97696.00;5036586;28;20090;-73
2022/07/08 01:11:19;;;;;;;5.63;1.23;;;;;;;10.12;100.00;97700.34;5035031;28;20028;-73
2022/07/08 01:13:47;;;;;;;9.25;1.60;;;;;;;10.11;100.00;97697.88;5035618;28;20381;-73
2022/07/08 01:16:13;;;;;;;6.65;1.73;;;;;;;10.08;100.00;97701.81;5034733;28;20550;-74
2022/07/08 01:18:40;;;;;;;13.45;1.63;;;;;;;9.98;100.00;97701.47;5034842;28;20183;-73
2022/07/08 01:21:06;;;;;;;5.55;1.10;;;;;;;9.90;100.00;97699.84;5034313;28;20055;-73
2022/07/08 01:23:31;;;;;;;5.45;1.80;;;;;;;9.79;100.00;97705.84;5048825;28;20025;-74
2022/07/08 01:25:58;;;;;;;10.50;1.50;;;;;;;9.81;100.00;97714.50;5035804;28;20037;-73
2022/07/08 01:28:23;;;;;;;9.73;1.52;;;;;;;9.76;100.00;97707.09;5033662;28;20037;-73
2022/07/08 01:30:49;;;;;;;5.63;1.05;;;;;;;9.80;100.00;97710.16;5034085;28;20537;-73
2022/07/08 01:33:15;;;;;;;9.25;1.30;;;;;;;9.73;100.00;97709.41;5034242;28;20039;-73
2022/07/08 01:35:40;;;;;;;7.50;1.55;;;;;;;9.76;100.00;97706.28;5034588;28;20036;-73
2022/07/08 01:38:06;;;;;;;6.53;1.13;;;;;;;9.70;100.00;97707.13;5037297;28;20032;-73
2022/07/08 01:40:31;;;;;;;11.43;1.42;;;;;;;9.68;100.00;97710.03;5034087;28;20051;-74
2022/07/08 01:42:57;;;;;;;9.60;1.70;;;;;;;9.69;100.00;97716.19;5035682;28;20303;-73
2022/07/08 01:45:22;;;;;;;6.35;1.63;;;;;;;9.58;100.00;97712.34;5033316;28;20036;-73
2022/07/08 01:47:48;;;;;;;7.20;1.40;;;;;;;9.56;100.00;97724.25;5035325;28;20498;-73
2022/07/08 01:50:13;;;;;;;6.22;1.20;;;;;;;9.55;100.00;97726.09;5033687;28;20036;-74
2022/07/08 01:52:39;;;;;;;5.72;1.45;;;;;;;9.48;100.00;97739.47;5035507;28;20051;-73
2022/07/08 01:55:05;;;;;;;9.48;1.45;;;;;;;9.48;100.00;97731.47;5033859;28;20061;-73
2022/07/08 01:57:31;;;;;;;6.82;1.50;;;;;;;9.44;100.00;97732.13;5035420;28;20123;-74
2022/07/08 01:59:57;;;;;;;8.35;1.30;;;;;;;9.46;100.00;97730.84;5032829;28;20142;-74
2022/07/08 02:02:22;;;;;;;5.85;1.25;;;;;;;9.42;100.00;97743.00;5033273;28;20040;-73
2022/07/08 02:04:48;;;;;;;7.68;1.30;;;;;;;9.42;100.00;97742.19;5036595;28;20040;-73
2022/07/08 02:07:14;;;;;;;8.43;1.48;;;;;;;9.49;100.00;97743.81;5035717;28;20037;-73
2022/07/08 02:09:41;;;;;;;9.27;1.60;;;;;;;9.65;100.00;97747.88;5034795;28;20033;-73
2022/07/08 02:12:20;;;;;;;7.90;1.30;;;;;;;9.80;100.00;97746.78;5031497;28;20048;-72
2022/07/08 02:14:55;;;;;;;12.18;1.50;;;;;;;9.96;100.00;97743.59;5032478;28;20044;-73
2022/07/08 02:17:23;;;;;;;5.35;1.15;;;;;;;10.05;100.00;97747.69;5036880;28;20059;-72
2022/07/08 02:19:49;;;;;;;3.92;1.13;;;;;;;10.10;100.00;97750.53;5038950;28;20112;-72
2022/07/08 02:22:15;;;;;;;5.68;1.30;;;;;;;10.22;100.00;97748.88;5037643;28;20065;-73
2022/07/08 02:24:41;;;;;;;7.68;1.25;;;;;;;10.22;100.00;97742.66;5034840;28;20028;-73
2022/07/08 02:27:06;;;;;;;8.50;1.60;;;;;;;10.30;100.00;97742.44;5033595;28;20041;-72
2022/07/08 02:29:32;;;;;;;6.88;1.20;;;;;;;10.24;100.00;97735.28;5032525;28;20034;-73
2022/07/08 02:31:58;;;;;;;7.68;1.75;;;;;;;10.19;100.00;97735.06;5048107;28;20080;-74
2022/07/08 02:34:24;;;;;;;8.98;1.65;;;;;;;10.14;100.00;97740.25;5032704;28;20037;-73
2022/07/08 02:36:49;;;;;;;7.13;1.55;;;;;;;10.24;100.00;97746.78;5034125;28;20061;-73
2022/07/08 02:39:15;;;;;;;10.95;1.38;;;;;;;10.35;100.00;97739.94;5032361;28;20047;-73
2022/07/08 02:41:42;;;;;;;8.38;1.60;;;;;;;10.39;100.00;97740.31;5033779;28;20400;-73
2022/07/08 02:44:08;;;;;;;11.95;1.60;;;;;;;10.52;100.00;97748.28;5033305;28;20040;-73
2022/07/08 02:46:34;;;;;;;5.97;1.30;;;;;;;10.45;100.00;97752.84;5033583;28;20040;-72
2022/07/08 02:48:59;;;;;;;9.15;1.77;;;;;;;10.67;100.00;97751.47;5033341;28;20086;-73
2022/07/08 02:51:25;;;;;;;9.13;1.30;;;;;;;10.84;100.00;97749.06;5032050;28;20040;-73
2022/07/08 02:53:50;;;;;;;7.00;1.45;;;;;;;10.95;100.00;97742.16;5034146;28;20443;-73
2022/07/08 02:56:16;;;;;;;7.68;1.50;;;;;;;11.02;100.00;97746.41;5029904;28;20041;-73
2022/07/08 02:58:42;;;;;;;11.23;1.58;;;;;;;11.01;100.00;97747.47;5031638;28;20139;-73
2022/07/08 03:01:07;;;;;;;8.93;1.60;;;;;;;10.84;100.00;97746.38;5046159;28;20083;-73
2022/07/08 03:03:33;;;;;;;8.50;1.38;;;;;;;10.57;100.00;97753.78;5032421;28;20057;-73
2022/07/08 03:05:58;;;;;;;9.07;0.98;;;;;;;10.34;100.00;97757.00;5032844;28;20794;-73
2022/07/08 03:08:23;;;;;;;6.65;1.08;;;;;;;10.19;100.00;97762.63;5034023;28;20165;-73
2022/07/08 03:10:49;;;;;;;9.82;2.08;;;;;;;9.99;100.00;97759.25;5034543;28;20068;-73
2022/07/08 03:13:15;;;;;;;9.98;1.60;;;;;;;9.85;100.00;97763.00;5033130;28;20390;-73
2022/07/08 03:15:41;;;;;;;9.82;1.33;;;;;;;9.74;100.00;97759.16;5032291;28;20040;-73
2022/07/08 03:18:06;;;;;;;7.13;1.67;;;;;;;9.74;100.00;97759.97;5030863;28;20045;-73
2022/07/08 03:20:32;;;;;;;7.40;1.33;;;;;;;9.87;100.00;97766.28;5032866;28;20818;-73
2022/07/08 03:22:58;;;;;;;6.40;1.35;;;;;;;10.05;100.00;97759.22;5034299;28;20142;-73
2022/07/08 03:25:24;;;;;;;5.28;1.70;;;;;;;10.26;100.00;97757.28;5031276;28;20230;-73
2022/07/08 03:27:49;;;;;;;7.35;1.27;;;;;;;10.43;100.00;97760.28;5032197;28;20056;-74
2022/07/08 03:30:15;;;;;;;6.82;1.67;;;;;;;10.51;100.00;97765.38;5030711;28;20470;-73
2022/07/08 03:32:40;;;;;;;7.85;1.42;;;;;;;10.61;100.00;97760.34;5031845;28;20078;-73
2022/07/08 03:35:06;;;;;;;5.80;1.35;;;;;;;10.67;100.00;97756.81;5033657;28;20173;-73
2022/07/08 03:37:31;;;;;;;7.22;1.70;;;;;;;10.72;100.00;97756.97;5038689;28;20484;-73
2022/07/08 03:41:19;;;;;;;7.18;1.50;;;;;;;10.81;100.00;97763.69;5036003;28;20041;-74
2022/07/08 03:42:42;;;;;;;11.85;1.50;;;;;;;10.86;100.00;97758.50;5034576;28;20115;-73
2022/07/08 03:45:08;;;;;;;8.48;1.40;;;;;;;10.91;100.00;97757.84;5036571;28;20488;-73
2022/07/08 03:47:34;;;;;;;15.82;1.70;;;;;;;11.00;100.00;97756.53;5039036;28;20074;-73
2022/07/08 03:50:00;;;;;;;7.15;1.35;;;;;;;11.01;100.00;97762.72;5036721;28;20031;-73
2022/07/08 03:52:25;;;;;;;9.25;1.95;;;;;;;11.03;100.00;97768.66;5036012;28;20037;-74
2022/07/08 03:54:50;;;;;;;7.40;1.48;;;;;;;11.06;100.00;97768.25;5036997;28;20041;-73
2022/07/08 03:57:16;;;;;;;7.35;1.38;;;;;;;11.12;100.00;97764.66;5038505;28;20051;-73
2022/07/08 03:59:41;;;;;;;9.30;1.50;;;;;;;11.14;100.00;97767.97;5035397;28;20648;-73
2022/07/08 04:02:07;;;;;;;6.13;1.40;;;;;;;11.17;100.00;97772.88;5038549;28;20500;-73
2022/07/08 04:04:32;;;;;;;6.43;1.25;;;;;;;11.20;100.00;97777.78;5035419;28;20033;-73
2022/07/08 04:06:58;;;;;;;11.40;1.83;;;;;;;11.21;100.00;97779.44;5034453;28;20044;-73
2022/07/08 04:09:23;;;;;;;12.43;1.60;;;;;;;11.24;100.00;97770.13;5035083;28;20037;-73
2022/07/08 04:11:48;;;;;;;7.05;1.42;;;;;;;11.28;100.00;97780.16;5035278;28;20030;-74
2022/07/08 04:14:14;;;;;;;5.03;1.25;;;;;;;11.32;100.00;97781.38;5036140;28;20029;-74
2022/07/08 04:16:39;;;;;;;8.40;1.92;;;;;;;11.35;100.00;97788.97;5036040;28;20032;-74
2022/07/08 04:19:05;;;;;;;9.60;1.30;;;;;;;11.40;100.00;97791.81;5036387;28;20053;-74
2022/07/08 04:21:30;;;;;;;9.80;1.38;;;;;;;11.40;100.00;97788.31;5036750;28;20506;-73
2022/07/08 04:23:58;;;;;;;12.32;1.48;;;;;;;11.39;100.00;97787.50;5048153;28;20029;-73
2022/07/08 04:26:28;;;;;;;6.93;1.50;;;;;;;11.34;100.00;97789.19;5037765;28;20037;-73
2022/07/08 04:28:53;;;;;;;11.00;1.83;;;;;;;11.38;100.00;97793.09;5036539;28;20482;-73
2022/07/08 04:31:19;;;;;;;4.75;1.42;;;;;;;11.42;100.00;97792.41;5035498;28;20025;-73
2022/07/08 04:33:44;;;;;;;8.77;1.73;;;;;;;11.50;100.00;97787.81;5036840;28;20392;-74
2022/07/08 04:36:10;;;;;;;5.75;1.40;;;;;;;11.49;100.00;97802.25;5033438;28;20044;-73
2022/07/08 04:38:35;;;;;;;7.55;1.50;;;;;;;11.55;100.00;97804.06;5037887;28;20116;-74
2022/07/08 04:41:01;;;;;;;8.60;1.48;;;;;;;11.55;100.00;97799.50;5034847;28;20553;-73
2022/07/08 04:43:26;;;;;;;4.47;1.17;;;;;;;11.60;100.00;97804.22;5037061;28;20370;-74
2022/07/08 04:45:52;;;;;;;7.07;1.40;;;;;;;11.64;100.00;97800.03;5033910;28;20268;-74
2022/07/08 04:48:17;;;;;;;13.00;1.70;;;;;;;11.60;100.00;97817.63;5033339;28;20476;-74
2022/07/08 04:50:43;;;;;;;7.45;1.40;;;;;;;11.66;100.00;97814.84;5034850;28;20033;-74
2022/07/08 04:53:08;;;;;;;6.50;1.40;;;;;;;11.70;100.00;97816.06;5035808;28;20041;-74
2022/07/08 04:55:34;;;;;;;12.93;1.48;;;;;;;11.67;100.00;97810.31;5035000;28;20036;-74
2022/07/08 04:58:02;;;;;;;6.40;1.65;;;;;;;11.53;100.00;97817.69;5035364;28;20028;-74
2022/07/08 05:00:29;;;;;;;6.43;1.65;;;;;;;11.56;100.00;97817.22;5034413;28;20048;-74
2022/07/08 05:02:55;;;;;;;13.52;1.88;;;;;;;11.41;100.00;97817.56;5034093;28;20087;-74
2022/07/08 05:05:21;;;;;;;9.00;1.40;;;;;;;11.29;100.00;97814.00;5033945;28;20428;-74
2022/07/08 05:07:50;;;;;;;5.22;1.25;;;;;;;11.31;100.00;97817.25;5035415;28;20072;-74
2022/07/08 05:10:16;;;;;;;6.50;1.48;;;;;;;11.34;100.00;97814.13;5035117;28;20037;-74
2022/07/08 05:12:43;;;;;;;7.97;1.50;;;;;;;11.48;100.00;97814.00;5036259;28;20261;-74
2022/07/08 05:15:09;;;;;;;7.40;1.83;;;;;;;11.69;100.00;97818.97;5033999;28;20166;-74
2022/07/08 05:17:34;;;;;;;8.32;1.60;;;;;;;11.76;100.00;97833.13;5037582;28;20085;-73
2022/07/08 05:20:00;;;;;;;6.85;1.50;;;;;;;11.80;100.00;97825.44;5033304;28;20547;-74
2022/07/08 05:22:25;;;;;;;9.02;1.48;;;;;;;11.58;100.00;97825.03;5032755;28;20110;-73
2022/07/08 05:24:51;;;;;;;5.68;1.40;;;;;;;11.77;100.00;97832.06;5034888;28;20439;-73
2022/07/08 05:27:16;;;;;;;14.43;1.92;;;;;;;12.03;100.00;97835.53;5034872;28;20025;-73
2022/07/08 05:29:42;;;;;;;7.57;1.40;;;;;;;12.22;100.00;97831.81;5033558;28;20037;-73
2022/07/08 05:32:07;;;;;;;9.82;1.52;;;;;;;12.33;100.00;97833.72;5034034;28;20037;-73
2022/07/08 05:34:33;;;;;;;9.77;2.30;;;;;;;12.41;100.00;97833.41;5034786;28;20082;-73
2022/07/08 05:36:58;;;;;;;9.13;1.38;;;;;;;12.56;100.00;97830.31;5033787;28;20033;-73
2022/07/08 05:39:24;;;;;;;10.10;1.95;;;;;;;12.61;100.00;97832.34;5031789;28;20546;-73
2022/07/08 05:41:51;;;;;;;7.05;1.50;;;;;;;12.60;100.00;97838.72;5034761;28;20036;-73
2022/07/08 05:44:17;;;;;;;6.85;1.50;;;;;;;12.56;100.00;97846.44;5033288;28;20443;-74
2022/07/08 05:46:43;;;;;;;10.88;1.75;;;;;;;12.67;100.00;97855.56;5032405;28;20025;-74
2022/07/08 05:49:09;;;;;;;9.73;1.95;;;;;;;12.78;100.00;97852.94;5032294;28;20037;-73
2022/07/08 05:51:34;;;;;;;6.50;1.40;;;;;;;12.70;100.00;97857.81;5033553;28;20044;-73
2022/07/08 05:54:00;;;;;;;6.82;1.55;;;;;;;12.83;100.00;97855.72;5037556;28;20107;-73
2022/07/08 05:56:25;;;;;;;8.45;1.95;;;;;;;13.00;100.00;97871.22;5032410;28;20609;-73
2022/07/08 05:58:51;;;;;;;7.45;1.40;;;;;;;13.01;100.00;97864.81;5032741;28;20037;-73
2022/07/08 06:01:16;;;;;;;4.93;1.33;;;;;;;13.16;100.00;97873.25;5032365;28;20542;-73
2022/07/08 06:03:42;;;;;;;6.63;1.50;;;;;;;13.16;100.00;97870.56;5034505;28;20041;-73
2022/07/08 06:06:07;;;;;;;5.05;1.95;;;;;;;13.16;100.00;97867.06;5033454;28;20071;-73
2022/07/08 06:08:33;;;;;;;11.15;1.88;;;;;;;13.36;100.00;97881.03;5034281;28;20043;-72
2022/07/08 06:11:01;;;;;;;7.03;1.50;;;;;;;13.45;100.00;97878.81;5034058;28;20045;-73
2022/07/08 06:13:27;;;;;;;5.15;1.45;;;;;;;13.53;100.00;97878.47;5032354;28;20534;-73
2022/07/08 06:15:53;;;;;;;8.93;1.77;;;;;;;13.44;100.00;97878.00;5047717;28;20033;-73
2022/07/08 06:18:18;;;;;;;3.72;1.13;;;;;;;13.33;100.00;97885.00;5033996;28;20056;-73
2022/07/08 06:20:44;;;;;;;9.70;1.60;;;;;;;13.28;100.00;97882.19;5033643;28;20551;-73
2022/07/08 06:23:09;;;;;;;5.75;1.35;;;;;;;13.36;100.00;97889.91;5034602;28;20108;-74
2022/07/08 06:25:35;;;;;;;9.77;1.45;;;;;;;13.42;100.00;97885.47;5037459;28;20383;-73
2022/07/08 06:28:00;;;;;;;6.97;1.20;;;;;;;13.35;100.00;97887.44;5036414;28;20536;-74
2022/07/08 06:30:26;;;;;;;4.47;1.17;;;;;;;13.42;100.00;97892.72;5034335;28;20032;-74
2022/07/08 06:32:51;;;;;;;9.23;1.60;;;;;;;13.47;100.00;97890.16;5034251;28;20550;-74
2022/07/08 06:35:17;;;;;;;11.65;1.67;;;;;;;13.47;100.00;97891.00;5033189;28;20047;-74
2022/07/08 06:37:42;;;;;;;6.82;1.33;;;;;;;13.50;100.00;97885.13;5034400;28;20068;-74
2022/07/08 06:40:08;;;;;;;10.27;1.40;;;;;;;13.66;100.00;97889.00;5033552;28;20064;-74
2022/07/08 06:42:34;;;;;;;6.80;1.40;;;;;;;13.57;100.00;97876.97;5032764;28;20585;-73
2022/07/08 06:45:05;;;;;;;11.60;2.05;;;;;;;13.91;100.00;97876.13;5030189;28;20048;-74
2022/07/08 06:47:30;;;;;;;13.10;1.60;;;;;;;14.27;100.00;97876.91;5033059;28;20041;-74
2022/07/08 06:49:55;;;;;;;5.55;1.60;;;;;;;14.41;100.00;97875.59;5034945;28;20024;-73
2022/07/08 06:52:21;;;;;;;7.57;1.38;;;;;;;14.20;100.00;97878.91;5035340;28;20136;-74
2022/07/08 06:54:47;;;;;;;7.68;1.33;;;;;;;13.84;100.00;97885.38;5035542;28;20063;-75
2022/07/08 06:57:14;;;;;;;6.80;1.40;;;;;;;13.62;100.00;97894.03;5034860;28;20060;-75
2022/07/08 06:59:40;;;;;;;7.68;1.50;;;;;;;13.69;100.00;97893.09;5031682;28;20095;-74
2022/07/08 07:02:05;;;;;;;6.18;1.60;;;;;;;13.83;100.00;97897.19;5037625;28;20511;-75
2022/07/08 07:04:31;;;;;;;7.78;1.95;;;;;;;13.85;100.00;97887.00;5033607;28;20060;-74
2022/07/08 07:06:56;;;;;;;6.50;1.55;;;;;;;13.92;100.00;97890.41;5036920;28;20065;-75
2022/07/08 07:09:22;;;;;;;5.50;1.80;;;;;;;14.10;100.00;97886.78;5034562;28;20029;-75
2022/07/08 07:11:48;;;;;;;5.97;1.50;;;;;;;14.28;100.00;97885.81;5037067;28;20040;-74
2022/07/08 07:14:13;;;;;;;7.72;1.52;;;;;;;14.22;100.00;97890.25;5035442;28;20025;-74
2022/07/08 07:16:39;;;;;;;6.88;1.45;;;;;;;14.45;100.00;97886.69;5032901;28;20048;-75
2022/07/08 07:19:05;;;;;;;7.95;1.70;;;;;;;14.22;100.00;97890.25;5031067;28;20414;-73
2022/07/08 07:21:30;;;;;;;6.63;1.50;;;;;;;13.68;100.00;97892.28;5033369;28;20033;-72
2022/07/08 07:23:56;;;;;;;6.68;1.80;;;;;;;13.61;100.00;97896.94;5050320;28;20032;-73
2022/07/08 07:26:22;;;;;;;5.25;1.80;;;;;;;13.88;100.00;97897.31;5033884;28;20421;-73
2022/07/08 07:28:47;;;;;;;9.55;1.88;;;;;;;14.05;100.00;97895.53;5032800;28;20029;-73
2022/07/08 07:31:13;;;;;;;3.90;1.30;;;;;;;14.59;100.00;97903.44;5036051;28;20052;-74
2022/07/08 07:33:38;;;;;;;5.05;1.27;;;;;;;14.68;100.00;97912.78;5034955;28;20127;-73
2022/07/08 07:36:04;;;;;;;7.93;1.40;;;;;;;14.90;100.00;97924.53;5031542;28;20052;-74
2022/07/08 07:38:30;;;;;;;7.85;1.73;;;;;;;14.91;100.00;97922.66;5034529;28;20226;-74
2022/07/08 07:40:55;;;;;;;10.27;1.80;;;;;;;15.07;100.00;97918.34;5032763;28;20472;-74
2022/07/08 07:43:21;;;;;;;8.13;1.60;;;;;;;15.25;100.00;97924.38;5033573;28;20033;-73
2022/07/08 07:45:46;;;;;;;5.63;1.33;;;;;;;15.13;100.00;97917.41;5032468;28;20114;-74
2022/07/08 07:48:12;;;;;;;8.23;1.50;;;;;;;14.99;100.00;97908.78;5031446;28;20064;-74
2022/07/08 07:50:39;;;;;;;8.80;1.40;;;;;;;15.12;100.00;97899.59;5034546;28;20048;-74
2022/07/08 07:53:04;;;;;;;5.07;1.35;;;;;;;15.20;100.00;97904.59;5032780;28;20030;-74
2022/07/08 07:55:29;;;;;;;8.90;1.90;;;;;;;15.30;100.00;97913.66;5033261;28;20044;-74
2022/07/08 07:57:55;;;;;;;5.70;1.50;;;;;;;15.49;100.00;97913.44;5035039;28;20110;-74
2022/07/08 08:00:20;;;;;;;7.63;1.73;;;;;;;15.72;100.00;97912.47;5031447;28;20120;-74
2022/07/08 08:02:46;;;;;;;10.57;1.30;;;;;;;15.81;100.00;97906.44;5032403;28;20543;-74
2022/07/08 08:05:13;;;;;;;10.98;2.15;;;;;;;15.57;100.00;97915.75;5035578;28;20346;-73
2022/07/08 08:07:40;;;;;;;8.25;1.48;;;;;;;15.50;100.00;97923.19;5033872;28;20132;-74
2022/07/08 08:10:07;;;;;;;6.35;2.10;;;;;;;15.31;100.00;97918.00;5033508;28;20125;-73
2022/07/08 08:12:32;;;;;;;9.88;1.80;;;;;;;14.98;100.00;97926.03;5035501;28;20039;-73
2022/07/08 08:14:58;;;;;;;13.70;1.90;;;;;;;14.81;100.00;97923.28;5046768;28;20033;-73
2022/07/08 08:17:23;;;;;;;6.13;1.20;;;;;;;14.90;100.00;97921.00;5032147;28;20057;-73
2022/07/08 08:19:49;;;;;;;4.53;1.40;;;;;;;15.04;100.00;97933.97;5032594;28;20473;-73
2022/07/08 08:22:15;;;;;;;8.38;1.77;;;;;;;15.01;100.00;97933.59;5035923;28;20482;-73
2022/07/08 08:24:42;;;;;;;8.25;1.40;;;;;;;14.73;100.00;97929.84;5039354;28;20083;-73
2022/07/08 08:27:07;;;;;;;7.25;1.40;;;;;;;14.58;100.00;97934.13;5039329;28;20116;-73
2022/07/08 08:29:33;;;;;;;5.82;1.30;;;;;;;14.51;100.00;97931.56;5036750;28;20420;-73
2022/07/08 08:31:58;;;;;;;6.72;1.30;;;;;;;14.53;100.00;97918.66;5039791;28;20524;-73
2022/07/08 08:34:24;;;;;;;4.60;1.60;;;;;;;14.56;100.00;97934.38;5034203;28;20034;-73
2022/07/08 08:36:49;;;;;;;8.32;1.58;;;;;;;14.57;100.00;97933.31;5037085;28;20033;-73
2022/07/08 08:39:15;;;;;;;6.47;2.15;;;;;;;15.07;100.00;97938.03;5035640;28;20037;-73
2022/07/08 08:41:41;;;;;;;10.20;2.03;;;;;;;15.64;100.00;97921.81;5038019;28;20123;-73
2022/07/08 08:44:08;;;;;;;8.70;1.73;;;;;;;16.14;100.00;97931.75;5055332;28;20488;-74
2022/07/08 08:46:35;;;;;;;5.93;1.52;;;;;;;16.37;100.00;97928.84;5032733;28;20570;-73
2022/07/08 08:49:01;;;;;;;7.97;1.50;;;;;;;15.85;100.00;97934.56;5038406;28;20090;-73
2022/07/08 08:51:30;;;;;;;7.05;1.50;;;;;;;15.45;100.00;97931.97;5037270;28;20433;-73
2022/07/08 08:53:58;;;;;;;8.45;1.85;;;;;;;15.27;100.00;97933.03;5033360;28;20049;-73
2022/07/08 08:56:25;;;;;;;7.63;1.70;;;;;;;15.50;100.00;97925.88;5035612;28;20037;-74
2022/07/08 08:58:53;;;;;;;6.57;1.65;;;;;;;15.41;100.00;97921.91;5035715;28;20045;-73
2022/07/08 09:01:19;;;;;;;7.85;1.88;;;;;;;15.12;100.00;97923.84;5037417;28;20068;-73
2022/07/08 09:03:45;;;;;;;7.10;1.65;;;;;;;14.96;100.00;97922.75;5037573;28;20796;-73
2022/07/08 09:06:11;;;;;;;4.25;1.55;;;;;;;15.15;100.00;97924.16;5037555;28;20142;-73
2022/07/08 09:08:37;;;;;;;6.22;1.85;;;;;;;15.22;100.00;97913.25;5038430;28;20484;-73
2022/07/08 09:11:03;;;;;;;9.25;1.77;;;;;;;15.45;100.00;97920.38;5037888;28;20033;-73
2022/07/08 09:13:28;;;;;;;4.43;1.45;;;;;;;15.85;100.00;97910.25;5056582;28;20060;-74
2022/07/08 09:15:59;;;;;;;6.18;1.20;;;;;;;16.10;100.00;97909.00;5051383;28;20159;-73
2022/07/08 09:18:35;;;;;;;8.88;1.95;;;;;;;15.93;100.00;97916.31;5035508;28;20045;-74
2022/07/08 09:21:02;;;;;;;8.13;1.88;;;;;;;15.63;100.00;97912.06;5034887;28;20495;-74
2022/07/08 09:23:30;;;;;;;5.45;1.58;;;;;;;15.58;100.00;97911.97;5036517;28;20047;-74
2022/07/08 09:25:58;;;;;;;8.77;2.00;;;;;;;15.61;100.00;97911.50;5035579;28;20148;-73
2022/07/08 09:28:39;;;;;;;8.35;1.40;;;;;;;15.67;100.00;97912.41;5036463;28;20045;-73
2022/07/08 09:31:07;;;;;;;6.97;1.80;;;;;;;15.68;100.00;97917.56;5037050;28;20044;-74
2022/07/08 09:33:33;;;;;;;8.93;1.60;;;;;;;15.64;100.00;97916.44;5037450;28;20036;-73
2022/07/08 09:36:01;;;;;;;7.65;1.88;;;;;;;15.60;100.00;97912.53;5039596;28;20031;-73
2022/07/08 09:38:28;;;;;;;4.05;1.33;;;;;;;15.58;100.00;97912.78;5039257;28;20272;-73
2022/07/08 09:41:02;;;;;;;6.28;2.00;;;;;;;15.70;100.00;97915.41;5054274;28;20047;-73
2022/07/08 09:43:29;;;;;;;6.18;1.38;;;;;;;15.83;100.00;97907.00;5035780;28;20064;-73
2022/07/08 09:46:02;;;;;;;5.38;1.42;;;;;;;15.85;100.00;97918.34;5040145;28;20108;-74
2022/07/08 09:48:28;;;;;;;5.65;1.40;;;;;;;16.13;100.00;97911.22;5048863;28;20440;-73
2022/07/08 09:50:54;;;;;;;9.55;1.65;;;;;;;16.11;100.00;97916.06;5038304;28;20025;-74
2022/07/08 09:53:23;;;;;;;8.07;1.40;;;;;;;16.19;100.00;97915.63;5035193;28;20641;-73
2022/07/08 09:55:53;;;;;;;4.97;1.40;;;;;;;16.40;100.00;97917.50;5030873;28;20107;-73
2022/07/08 09:58:23;;;;;;;8.00;1.70;;;;;;;16.49;100.00;97911.69;5036887;28;20052;-73
2022/07/08 10:00:50;;;;;;;6.00;1.70;;;;;;;16.42;100.00;97923.50;5038386;28;20080;-73
2022/07/08 10:03:17;;;;;;;6.13;1.58;;;;;;;16.37;100.00;97915.31;5036069;28;20038;-73
2022/07/08 10:05:43;;;;;;;4.25;1.40;;;;;;;16.66;100.00;97924.06;5036655;28;20130;-73
2022/07/08 10:08:10;;;;;;;9.10;1.67;;;;;;;16.78;100.00;97915.03;5037209;28;20037;-73
2022/07/08 10:10:40;;;;;;;7.20;1.42;;;;;;;17.20;100.00;97917.94;5037338;28;20112;-73
2022/07/08 10:13:06;;;;;;;4.82;1.42;;;;;;;17.66;100.00;97916.44;5034502;28;20419;-73
2022/07/08 10:15:35;;;;;;;7.30;1.30;;;;;;;17.79;100.00;97915.22;5038565;28;20037;-73
2022/07/08 10:18:07;;;;;;;6.47;1.77;;;;;;;17.90;100.00;97907.97;5037739;28;20049;-73
2022/07/08 10:20:35;;;;;;;10.25;1.80;;;;;;;17.84;97.77;97915.25;5036967;28;20558;-73
2022/07/08 10:23:07;;;;;;;5.15;1.40;;;;;;;17.74;96.94;97910.59;5035199;28;20028;-73
2022/07/08 10:25:32;;;;;;;3.92;1.10;;;;;;;18.04;100.00;97907.25;5036688;28;20037;-73
2022/07/08 10:28:08;;;;;;;10.40;1.73;;;;;;;18.25;97.56;97918.22;5034825;28;20404;-73
2022/07/08 10:30:50;;;;;;;6.32;1.38;;;;;;;18.19;95.45;97916.56;5056679;28;20129;-73
2022/07/08 10:33:23;;;;;;;5.85;1.30;;;;;;;18.26;97.98;97922.56;5053444;28;20033;-73
2022/07/08 10:36:07;;;;;;;6.43;1.60;;;;;;;18.40;96.81;97923.75;5038628;28;20045;-73
2022/07/08 10:38:40;;;;;;;5.65;1.48;;;;;;;18.47;93.38;97913.47;5039180;28;20128;-74
2022/07/08 10:41:10;;;;;;;10.30;1.65;;;;;;;18.49;96.33;97913.22;5035209;28;20117;-74
2022/07/08 10:43:38;;;;;;;8.37;1.50;;;;;;;18.95;90.66;97921.56;4340134;28;10001538;-74
2022/07/08 10:46:05;;;;;;;7.03;1.90;;;;;;;19.35;88.83;97915.38;5008573;28;20497;-73
2022/07/08 10:48:40;;;;;;;9.45;1.92;;;;;;;19.25;96.35;97915.38;5032917;28;20328;-73
2022/07/08 10:51:05;;;;;;;10.77;1.40;;;;;;;19.28;93.91;97920.25;5029684;28;20049;-73
2022/07/08 10:53:48;;;;;;;8.80;1.80;;;;;;;19.38;88.88;97909.44;5035208;28;20198;-73
2022/07/08 10:56:55;;;;;;;6.68;1.60;;;;;;;19.59;87.52;97905.66;5034934;28;20098;-74
2022/07/08 10:59:21;;;;;;;6.38;1.58;;;;;;;19.84;94.40;97893.16;5032930;28;20041;-73
2022/07/08 11:02:09;;;;;;;7.38;1.80;;;;;;;20.57;90.29;97886.22;5032665;28;20032;-74
2022/07/08 11:04:35;;;;;;;7.85;2.08;;;;;;;20.68;84.38;97884.25;5034263;28;20048;-74
2022/07/08 11:07:29;;;;;;;6.43;1.70;;;;;;;20.97;82.72;97880.84;5032597;28;20530;-74
2022/07/08 11:10:11;;;;;;;6.82;2.03;;;;;;;20.84;80.59;97891.25;5030600;28;20039;-74
2022/07/08 11:12:46;;;;;;;8.43;1.75;;;;;;;21.36;81.79;97894.50;5034342;28;20032;-74
2022/07/08 11:15:16;;;;;;;6.53;1.50;;;;;;;21.31;77.87;97903.50;5033806;28;20044;-73
2022/07/08 11:17:43;;;;;;;8.68;1.88;;;;;;;21.53;82.66;97902.28;5033943;28;20746;-73
2022/07/08 11:20:14;;;;;;;12.25;2.30;;;;;;;21.71;73.42;97907.03;5031212;28;20033;-74
2022/07/08 11:22:42;;;;;;;4.18;1.52;;;;;;;22.22;78.67;97895.69;5034610;28;20079;-74
2022/07/08 11:25:13;;;;;;;9.40;2.20;;;;;;;22.59;71.53;97905.91;5032203;28;20512;-73